sensor_id;sensor_type;location;lat;lon;timestamp;P1;durP1;ratioP1;P2;durP2;ratioP2
21309;SDS011;10814;51.722;8.772;2024-02-21T00:01:42;24.35;;;10.25;;
21309;SDS011;10814;51.722;8.772;2024-02-21T00:04:07;21.30;;;10.25;;
21309;SDS011;10814;51.722;8.772;2024-02-21T00:06:33;23.45;;;9.77;;
21309;SDS011;10814;51.722;8.772;2024-02-21T00:08:58;24.50;;;10.32;;
21309;SDS011;10814;51.722;8.772;2024-02-21T00:11:24;21.45;;;10.40;;
21309;SDS011;10814;51.722;8.772;2024-02-21T00:13:49;21.60;;;9.63;;
21309;SDS011;10814;51.722;8.772;2024-02-21T00:16:15;22.50;;;11.05;;
21309;SDS011;10814;51.722;8.772;2024-02-21T00:18:42;23.92;;;11.10;;
21309;SDS011;10814;51.722;8.772;2024-02-21T00:21:08;23.30;;;11.05;;
21309;SDS011;10814;51.722;8.772;2024-02-21T00:23:34;21.40;;;10.63;;
21309;SDS011;10814;51.722;8.772;2024-02-21T00:25:59;22.20;;;11.10;;
21309;SDS011;10814;51.722;8.772;2024-02-21T00:28:25;24.13;;;12.00;;
21309;SDS011;10814;51.722;8.772;2024-02-21T00:30:50;18.83;;;10.77;;
21309;SDS011;10814;51.722;8.772;2024-02-21T00:33:18;22.00;;;11.23;;
21309;SDS011;10814;51.722;8.772;2024-02-21T00:35:43;22.73;;;12.10;;
21309;SDS011;10814;51.722;8.772;2024-02-21T00:38:09;23.55;;;12.00;;
21309;SDS011;10814;51.722;8.772;2024-02-21T00:40:35;24.50;;;12.50;;
21309;SDS011;10814;51.722;8.772;2024-02-21T00:43:01;23.88;;;12.57;;
21309;SDS011;10814;51.722;8.772;2024-02-21T00:45:26;24.80;;;12.18;;
21309;SDS011;10814;51.722;8.772;2024-02-21T00:47:52;26.70;;;11.75;;
21309;SDS011;10814;51.722;8.772;2024-02-21T00:50:17;22.20;;;11.48;;
21309;SDS011;10814;51.722;8.772;2024-02-21T00:52:43;23.35;;;11.95;;
21309;SDS011;10814;51.722;8.772;2024-02-21T00:55:09;26.35;;;13.02;;
21309;SDS011;10814;51.722;8.772;2024-02-21T00:57:35;23.52;;;12.10;;
21309;SDS011;10814;51.722;8.772;2024-02-21T01:00:02;23.73;;;12.02;;
21309;SDS011;10814;51.722;8.772;2024-02-21T01:02:28;20.67;;;11.88;;
21309;SDS011;10814;51.722;8.772;2024-02-21T01:04:56;24.95;;;12.73;;
21309;SDS011;10814;51.722;8.772;2024-02-21T01:07:22;24.77;;;13.10;;
21309;SDS011;10814;51.722;8.772;2024-02-21T01:09:48;23.55;;;12.38;;
21309;SDS011;10814;51.722;8.772;2024-02-21T01:12:13;20.85;;;12.85;;
21309;SDS011;10814;51.722;8.772;2024-02-21T01:14:39;24.25;;;12.95;;
21309;SDS011;10814;51.722;8.772;2024-02-21T01:17:04;29.20;;;14.02;;
21309;SDS011;10814;51.722;8.772;2024-02-21T01:19:31;22.45;;;12.75;;
21309;SDS011;10814;51.722;8.772;2024-02-21T01:21:56;20.92;;;13.05;;
21309;SDS011;10814;51.722;8.772;2024-02-21T01:24:22;25.85;;;13.63;;
21309;SDS011;10814;51.722;8.772;2024-02-21T01:26:49;22.63;;;13.63;;
21309;SDS011;10814;51.722;8.772;2024-02-21T01:29:14;25.92;;;13.57;;
21309;SDS011;10814;51.722;8.772;2024-02-21T01:31:40;23.80;;;13.40;;
21309;SDS011;10814;51.722;8.772;2024-02-21T01:34:05;27.60;;;13.75;;
21309;SDS011;10814;51.722;8.772;2024-02-21T01:36:31;25.70;;;12.70;;
21309;SDS011;10814;51.722;8.772;2024-02-21T01:38:56;30.17;;;14.23;;
21309;SDS011;10814;51.722;8.772;2024-02-21T01:41:22;23.70;;;12.63;;
21309;SDS011;10814;51.722;8.772;2024-02-21T01:43:48;24.65;;;12.95;;
21309;SDS011;10814;51.722;8.772;2024-02-21T01:46:13;21.42;;;12.68;;
21309;SDS011;10814;51.722;8.772;2024-02-21T01:48:39;25.45;;;12.63;;
21309;SDS011;10814;51.722;8.772;2024-02-21T01:51:05;23.77;;;12.52;;
21309;SDS011;10814;51.722;8.772;2024-02-21T01:53:32;22.00;;;12.23;;
21309;SDS011;10814;51.722;8.772;2024-02-21T01:56:02;22.60;;;12.20;;
21309;SDS011;10814;51.722;8.772;2024-02-21T01:58:30;20.13;;;12.00;;
21309;SDS011;10814;51.722;8.772;2024-02-21T02:00:57;25.83;;;11.95;;
21309;SDS011;10814;51.722;8.772;2024-02-21T02:03:23;26.15;;;12.38;;
21309;SDS011;10814;51.722;8.772;2024-02-21T02:05:50;22.52;;;11.90;;
21309;SDS011;10814;51.722;8.772;2024-02-21T02:08:17;23.30;;;13.00;;
21309;SDS011;10814;51.722;8.772;2024-02-21T02:10:49;25.35;;;12.38;;
21309;SDS011;10814;51.722;8.772;2024-02-21T02:13:15;18.58;;;11.23;;
21309;SDS011;10814;51.722;8.772;2024-02-21T02:15:41;20.90;;;11.35;;
21309;SDS011;10814;51.722;8.772;2024-02-21T02:18:10;17.90;;;10.57;;
21309;SDS011;10814;51.722;8.772;2024-02-21T02:20:37;20.40;;;11.57;;
21309;SDS011;10814;51.722;8.772;2024-02-21T02:23:05;21.77;;;11.55;;
21309;SDS011;10814;51.722;8.772;2024-02-21T02:25:32;18.98;;;10.77;;
21309;SDS011;10814;51.722;8.772;2024-02-21T02:27:58;18.88;;;11.40;;
21309;SDS011;10814;51.722;8.772;2024-02-21T02:30:24;20.30;;;11.13;;
21309;SDS011;10814;51.722;8.772;2024-02-21T02:32:49;23.95;;;11.60;;
21309;SDS011;10814;51.722;8.772;2024-02-21T02:35:15;25.10;;;11.32;;
21309;SDS011;10814;51.722;8.772;2024-02-21T02:37:47;18.90;;;11.57;;
21309;SDS011;10814;51.722;8.772;2024-02-21T02:40:14;23.58;;;11.57;;
21309;SDS011;10814;51.722;8.772;2024-02-21T02:42:40;21.27;;;10.75;;
21309;SDS011;10814;51.722;8.772;2024-02-21T02:45:05;21.42;;;10.93;;
21309;SDS011;10814;51.722;8.772;2024-02-21T02:47:31;17.90;;;10.85;;
21309;SDS011;10814;51.722;8.772;2024-02-21T02:49:59;22.48;;;11.07;;
21309;SDS011;10814;51.722;8.772;2024-02-21T02:52:25;19.98;;;10.77;;
21309;SDS011;10814;51.722;8.772;2024-02-21T02:54:51;18.38;;;10.70;;
21309;SDS011;10814;51.722;8.772;2024-02-21T02:57:17;20.42;;;11.15;;
21309;SDS011;10814;51.722;8.772;2024-02-21T02:59:50;23.08;;;11.25;;
21309;SDS011;10814;51.722;8.772;2024-02-21T03:02:16;20.17;;;10.88;;
21309;SDS011;10814;51.722;8.772;2024-02-21T03:04:43;21.58;;;10.75;;
21309;SDS011;10814;51.722;8.772;2024-02-21T03:07:08;17.13;;;10.60;;
21309;SDS011;10814;51.722;8.772;2024-02-21T03:09:36;19.27;;;11.23;;
21309;SDS011;10814;51.722;8.772;2024-02-21T03:12:02;20.38;;;11.20;;
21309;SDS011;10814;51.722;8.772;2024-02-21T03:14:30;21.52;;;11.20;;
21309;SDS011;10814;51.722;8.772;2024-02-21T03:17:00;19.40;;;10.88;;
21309;SDS011;10814;51.722;8.772;2024-02-21T03:19:26;18.77;;;10.02;;
21309;SDS011;10814;51.722;8.772;2024-02-21T03:21:52;18.58;;;9.95;;
21309;SDS011;10814;51.722;8.772;2024-02-21T03:24:20;16.08;;;9.63;;
21309;SDS011;10814;51.722;8.772;2024-02-21T03:26:47;17.80;;;9.63;;
21309;SDS011;10814;51.722;8.772;2024-02-21T03:29:14;14.88;;;9.00;;
21309;SDS011;10814;51.722;8.772;2024-02-21T03:31:40;19.00;;;10.48;;
21309;SDS011;10814;51.722;8.772;2024-02-21T03:34:06;17.70;;;9.63;;
21309;SDS011;10814;51.722;8.772;2024-02-21T03:36:32;16.92;;;9.23;;
21309;SDS011;10814;51.722;8.772;2024-02-21T03:38:58;16.95;;;9.18;;
21309;SDS011;10814;51.722;8.772;2024-02-21T03:41:24;16.23;;;9.13;;
21309;SDS011;10814;51.722;8.772;2024-02-21T03:43:49;15.45;;;8.95;;
21309;SDS011;10814;51.722;8.772;2024-02-21T03:46:15;17.33;;;8.93;;
21309;SDS011;10814;51.722;8.772;2024-02-21T03:48:40;17.65;;;8.82;;
21309;SDS011;10814;51.722;8.772;2024-02-21T03:51:06;17.73;;;9.50;;
21309;SDS011;10814;51.722;8.772;2024-02-21T03:53:33;15.95;;;8.57;;
21309;SDS011;10814;51.722;8.772;2024-02-21T03:56:02;15.85;;;9.10;;
21309;SDS011;10814;51.722;8.772;2024-02-21T03:58:29;15.23;;;8.70;;
21309;SDS011;10814;51.722;8.772;2024-02-21T04:00:55;16.00;;;8.98;;
21309;SDS011;10814;51.722;8.772;2024-02-21T04:03:21;15.55;;;8.85;;
21309;SDS011;10814;51.722;8.772;2024-02-21T04:05:46;16.50;;;8.25;;
21309;SDS011;10814;51.722;8.772;2024-02-21T04:08:12;16.35;;;8.68;;
21309;SDS011;10814;51.722;8.772;2024-02-21T04:10:38;17.92;;;9.27;;
21309;SDS011;10814;51.722;8.772;2024-02-21T04:13:06;18.10;;;9.23;;
21309;SDS011;10814;51.722;8.772;2024-02-21T04:15:33;14.18;;;8.48;;
21309;SDS011;10814;51.722;8.772;2024-02-21T04:17:59;14.95;;;8.00;;
21309;SDS011;10814;51.722;8.772;2024-02-21T04:20:25;15.57;;;8.38;;
21309;SDS011;10814;51.722;8.772;2024-02-21T04:22:51;15.55;;;8.65;;
21309;SDS011;10814;51.722;8.772;2024-02-21T04:25:16;12.52;;;7.57;;
21309;SDS011;10814;51.722;8.772;2024-02-21T04:27:42;16.15;;;7.75;;
21309;SDS011;10814;51.722;8.772;2024-02-21T04:30:09;13.07;;;7.35;;
21309;SDS011;10814;51.722;8.772;2024-02-21T04:32:35;11.30;;;6.93;;
21309;SDS011;10814;51.722;8.772;2024-02-21T04:35:00;13.07;;;6.85;;
21309;SDS011;10814;51.722;8.772;2024-02-21T04:37:26;13.32;;;6.75;;
21309;SDS011;10814;51.722;8.772;2024-02-21T04:39:52;13.88;;;7.18;;
21309;SDS011;10814;51.722;8.772;2024-02-21T04:42:17;15.65;;;7.47;;
21309;SDS011;10814;51.722;8.772;2024-02-21T04:44:43;14.23;;;7.10;;
21309;SDS011;10814;51.722;8.772;2024-02-21T04:47:08;14.02;;;6.95;;
21309;SDS011;10814;51.722;8.772;2024-02-21T04:49:34;15.05;;;7.45;;
21309;SDS011;10814;51.722;8.772;2024-02-21T04:52:00;15.63;;;7.55;;
21309;SDS011;10814;51.722;8.772;2024-02-21T04:54:26;14.13;;;6.93;;
21309;SDS011;10814;51.722;8.772;2024-02-21T04:56:52;11.45;;;6.95;;
21309;SDS011;10814;51.722;8.772;2024-02-21T04:59:17;12.80;;;7.25;;
21309;SDS011;10814;51.722;8.772;2024-02-21T05:01:43;15.40;;;7.25;;
21309;SDS011;10814;51.722;8.772;2024-02-21T05:04:08;14.45;;;7.13;;
21309;SDS011;10814;51.722;8.772;2024-02-21T05:06:38;14.65;;;7.22;;
21309;SDS011;10814;51.722;8.772;2024-02-21T05:09:04;16.33;;;7.57;;
21309;SDS011;10814;51.722;8.772;2024-02-21T05:11:30;13.57;;;7.10;;
21309;SDS011;10814;51.722;8.772;2024-02-21T05:13:56;14.85;;;7.10;;
21309;SDS011;10814;51.722;8.772;2024-02-21T05:16:22;15.02;;;7.72;;
21309;SDS011;10814;51.722;8.772;2024-02-21T05:18:47;13.32;;;7.20;;
21309;SDS011;10814;51.722;8.772;2024-02-21T05:21:13;16.83;;;8.07;;
21309;SDS011;10814;51.722;8.772;2024-02-21T05:23:39;15.90;;;7.72;;
21309;SDS011;10814;51.722;8.772;2024-02-21T05:26:05;14.85;;;9.10;;
21309;SDS011;10814;51.722;8.772;2024-02-21T05:28:31;15.25;;;7.78;;
21309;SDS011;10814;51.722;8.772;2024-02-21T05:30:56;15.20;;;8.32;;
21309;SDS011;10814;51.722;8.772;2024-02-21T05:33:22;14.38;;;7.97;;
21309;SDS011;10814;51.722;8.772;2024-02-21T05:35:48;16.73;;;8.52;;
21309;SDS011;10814;51.722;8.772;2024-02-21T05:38:14;17.50;;;8.75;;
21309;SDS011;10814;51.722;8.772;2024-02-21T05:40:39;16.15;;;8.65;;
21309;SDS011;10814;51.722;8.772;2024-02-21T05:43:06;16.30;;;8.52;;
21309;SDS011;10814;51.722;8.772;2024-02-21T05:45:32;14.80;;;8.25;;
21309;SDS011;10814;51.722;8.772;2024-02-21T05:47:58;14.65;;;8.07;;
21309;SDS011;10814;51.722;8.772;2024-02-21T05:50:24;15.93;;;8.15;;
21309;SDS011;10814;51.722;8.772;2024-02-21T05:52:51;18.38;;;8.43;;
21309;SDS011;10814;51.722;8.772;2024-02-21T05:55:17;15.63;;;8.02;;
21309;SDS011;10814;51.722;8.772;2024-02-21T05:57:43;16.48;;;9.02;;
21309;SDS011;10814;51.722;8.772;2024-02-21T06:00:09;17.13;;;8.00;;
21309;SDS011;10814;51.722;8.772;2024-02-21T06:02:35;15.38;;;8.35;;
21309;SDS011;10814;51.722;8.772;2024-02-21T06:05:00;19.95;;;8.93;;
21309;SDS011;10814;51.722;8.772;2024-02-21T06:07:26;19.23;;;9.35;;
21309;SDS011;10814;51.722;8.772;2024-02-21T06:09:52;16.08;;;8.77;;
21309;SDS011;10814;51.722;8.772;2024-02-21T06:12:18;16.65;;;8.10;;
21309;SDS011;10814;51.722;8.772;2024-02-21T06:14:43;15.27;;;8.68;;
21309;SDS011;10814;51.722;8.772;2024-02-21T06:17:09;14.57;;;8.32;;
21309;SDS011;10814;51.722;8.772;2024-02-21T06:19:35;13.23;;;7.38;;
21309;SDS011;10814;51.722;8.772;2024-02-21T06:22:00;12.88;;;7.63;;
21309;SDS011;10814;51.722;8.772;2024-02-21T06:24:26;14.40;;;7.40;;
21309;SDS011;10814;51.722;8.772;2024-02-21T06:26:51;14.82;;;8.23;;
21309;SDS011;10814;51.722;8.772;2024-02-21T06:29:17;13.55;;;8.02;;
21309;SDS011;10814;51.722;8.772;2024-02-21T06:31:43;15.85;;;7.55;;
21309;SDS011;10814;51.722;8.772;2024-02-21T06:34:08;15.48;;;7.78;;
21309;SDS011;10814;51.722;8.772;2024-02-21T06:36:34;14.43;;;8.35;;
21309;SDS011;10814;51.722;8.772;2024-02-21T06:38:59;16.65;;;8.55;;
21309;SDS011;10814;51.722;8.772;2024-02-21T06:41:25;19.85;;;8.60;;
21309;SDS011;10814;51.722;8.772;2024-02-21T06:43:50;13.40;;;7.90;;
21309;SDS011;10814;51.722;8.772;2024-02-21T06:46:23;14.35;;;8.00;;
21309;SDS011;10814;51.722;8.772;2024-02-21T06:48:53;16.15;;;8.20;;
21309;SDS011;10814;51.722;8.772;2024-02-21T06:51:21;15.93;;;7.75;;
21309;SDS011;10814;51.722;8.772;2024-02-21T06:53:47;14.85;;;8.10;;
21309;SDS011;10814;51.722;8.772;2024-02-21T06:56:13;17.10;;;8.40;;
21309;SDS011;10814;51.722;8.772;2024-02-21T06:58:38;12.38;;;7.70;;
21309;SDS011;10814;51.722;8.772;2024-02-21T07:01:04;13.57;;;7.55;;
21309;SDS011;10814;51.722;8.772;2024-02-21T07:03:30;17.02;;;7.85;;
21309;SDS011;10814;51.722;8.772;2024-02-21T07:05:55;15.65;;;8.40;;
21309;SDS011;10814;51.722;8.772;2024-02-21T07:08:21;15.95;;;7.88;;
21309;SDS011;10814;51.722;8.772;2024-02-21T07:10:47;14.20;;;8.10;;
21309;SDS011;10814;51.722;8.772;2024-02-21T07:13:13;16.85;;;8.07;;
21309;SDS011;10814;51.722;8.772;2024-02-21T07:15:40;16.67;;;7.82;;
21309;SDS011;10814;51.722;8.772;2024-02-21T07:18:06;13.85;;;7.95;;
21309;SDS011;10814;51.722;8.772;2024-02-21T07:20:32;15.50;;;8.10;;
21309;SDS011;10814;51.722;8.772;2024-02-21T07:22:58;16.00;;;7.90;;
21309;SDS011;10814;51.722;8.772;2024-02-21T07:25:24;12.55;;;7.22;;
21309;SDS011;10814;51.722;8.772;2024-02-21T07:27:50;13.88;;;7.60;;
21309;SDS011;10814;51.722;8.772;2024-02-21T07:30:15;13.60;;;6.85;;
21309;SDS011;10814;51.722;8.772;2024-02-21T07:32:41;14.77;;;7.60;;
21309;SDS011;10814;51.722;8.772;2024-02-21T07:35:07;14.10;;;7.03;;
21309;SDS011;10814;51.722;8.772;2024-02-21T07:37:36;15.32;;;7.22;;
21309;SDS011;10814;51.722;8.772;2024-02-21T07:40:06;17.42;;;7.35;;
21309;SDS011;10814;51.722;8.772;2024-02-21T07:42:32;12.38;;;7.32;;
21309;SDS011;10814;51.722;8.772;2024-02-21T07:44:58;12.93;;;6.97;;
21309;SDS011;10814;51.722;8.772;2024-02-21T07:47:23;13.27;;;6.88;;
21309;SDS011;10814;51.722;8.772;2024-02-21T07:49:49;12.80;;;7.10;;
21309;SDS011;10814;51.722;8.772;2024-02-21T07:52:15;14.43;;;6.40;;
21309;SDS011;10814;51.722;8.772;2024-02-21T07:54:40;11.90;;;6.40;;
21309;SDS011;10814;51.722;8.772;2024-02-21T07:57:09;14.25;;;6.38;;
21309;SDS011;10814;51.722;8.772;2024-02-21T07:59:35;11.85;;;6.15;;
21309;SDS011;10814;51.722;8.772;2024-02-21T08:02:00;11.25;;;6.63;;
21309;SDS011;10814;51.722;8.772;2024-02-21T08:04:26;12.48;;;6.55;;
21309;SDS011;10814;51.722;8.772;2024-02-21T08:06:54;13.82;;;6.53;;
21309;SDS011;10814;51.722;8.772;2024-02-21T08:09:26;12.00;;;6.85;;
21309;SDS011;10814;51.722;8.772;2024-02-21T08:11:53;12.38;;;6.18;;
21309;SDS011;10814;51.722;8.772;2024-02-21T08:14:19;11.43;;;6.30;;
21309;SDS011;10814;51.722;8.772;2024-02-21T08:16:45;11.82;;;6.05;;
21309;SDS011;10814;51.722;8.772;2024-02-21T08:19:10;11.60;;;6.55;;
21309;SDS011;10814;51.722;8.772;2024-02-21T08:21:36;14.82;;;6.75;;
21309;SDS011;10814;51.722;8.772;2024-02-21T08:24:02;13.73;;;6.28;;
21309;SDS011;10814;51.722;8.772;2024-02-21T08:26:27;11.00;;;6.30;;
21309;SDS011;10814;51.722;8.772;2024-02-21T08:28:55;14.00;;;6.63;;
21309;SDS011;10814;51.722;8.772;2024-02-21T08:31:24;14.10;;;7.03;;
21309;SDS011;10814;51.722;8.772;2024-02-21T08:33:56;13.43;;;6.47;;
21309;SDS011;10814;51.722;8.772;2024-02-21T08:36:32;12.55;;;6.53;;
21309;SDS011;10814;51.722;8.772;2024-02-21T08:39:01;13.18;;;6.72;;
21309;SDS011;10814;51.722;8.772;2024-02-21T08:41:34;10.63;;;5.50;;
21309;SDS011;10814;51.722;8.772;2024-02-21T08:44:03;11.07;;;5.50;;
21309;SDS011;10814;51.722;8.772;2024-02-21T08:46:29;9.50;;;5.30;;
21309;SDS011;10814;51.722;8.772;2024-02-21T08:48:54;12.90;;;5.50;;
21309;SDS011;10814;51.722;8.772;2024-02-21T08:51:20;10.98;;;4.97;;
21309;SDS011;10814;51.722;8.772;2024-02-21T08:53:46;11.75;;;4.65;;
21309;SDS011;10814;51.722;8.772;2024-02-21T08:56:13;9.52;;;4.55;;
21309;SDS011;10814;51.722;8.772;2024-02-21T08:58:39;8.75;;;4.25;;
21309;SDS011;10814;51.722;8.772;2024-02-21T09:01:06;9.02;;;4.10;;
21309;SDS011;10814;51.722;8.772;2024-02-21T09:03:35;9.40;;;3.55;;
21309;SDS011;10814;51.722;8.772;2024-02-21T09:06:04;7.60;;;3.60;;
21309;SDS011;10814;51.722;8.772;2024-02-21T09:08:31;8.30;;;3.53;;
21309;SDS011;10814;51.722;8.772;2024-02-21T09:10:57;10.13;;;3.83;;
21309;SDS011;10814;51.722;8.772;2024-02-21T09:13:22;6.03;;;3.60;;
21309;SDS011;10814;51.722;8.772;2024-02-21T09:15:48;8.05;;;3.70;;
21309;SDS011;10814;51.722;8.772;2024-02-21T09:18:14;7.82;;;4.05;;
21309;SDS011;10814;51.722;8.772;2024-02-21T09:20:41;8.35;;;4.38;;
21309;SDS011;10814;51.722;8.772;2024-02-21T09:23:07;8.00;;;4.18;;
21309;SDS011;10814;51.722;8.772;2024-02-21T09:25:32;9.40;;;5.35;;
21309;SDS011;10814;51.722;8.772;2024-02-21T09:27:58;9.35;;;5.50;;
21309;SDS011;10814;51.722;8.772;2024-02-21T09:30:26;14.43;;;7.25;;
21309;SDS011;10814;51.722;8.772;2024-02-21T09:32:52;20.02;;;10.40;;
21309;SDS011;10814;51.722;8.772;2024-02-21T09:35:17;19.33;;;9.90;;
21309;SDS011;10814;51.722;8.772;2024-02-21T09:37:43;13.93;;;9.75;;
21309;SDS011;10814;51.722;8.772;2024-02-21T09:40:15;12.25;;;8.45;;
21309;SDS011;10814;51.722;8.772;2024-02-21T09:42:42;13.25;;;9.20;;
21309;SDS011;10814;51.722;8.772;2024-02-21T09:45:15;16.48;;;9.07;;
21309;SDS011;10814;51.722;8.772;2024-02-21T09:50:28;13.88;;;9.10;;
21309;SDS011;10814;51.722;8.772;2024-02-21T09:52:56;14.48;;;9.77;;
21309;SDS011;10814;51.722;8.772;2024-02-21T09:55:23;14.27;;;9.32;;
21309;SDS011;10814;51.722;8.772;2024-02-21T09:57:52;12.65;;;8.77;;
21309;SDS011;10814;51.722;8.772;2024-02-21T10:00:19;14.65;;;8.95;;
21309;SDS011;10814;51.722;8.772;2024-02-21T10:02:47;13.82;;;8.55;;
21309;SDS011;10814;51.722;8.772;2024-02-21T10:05:14;13.43;;;8.45;;
21309;SDS011;10814;51.722;8.772;2024-02-21T10:07:40;11.35;;;7.55;;
21309;SDS011;10814;51.722;8.772;2024-02-21T10:10:06;11.95;;;8.60;;
21309;SDS011;10814;51.722;8.772;2024-02-21T10:12:32;11.05;;;7.65;;
21309;SDS011;10814;51.722;8.772;2024-02-21T10:15:02;11.27;;;7.20;;
21309;SDS011;10814;51.722;8.772;2024-02-21T10:17:27;12.07;;;7.30;;
21309;SDS011;10814;51.722;8.772;2024-02-21T10:19:53;10.20;;;7.00;;
21309;SDS011;10814;51.722;8.772;2024-02-21T10:22:18;15.65;;;7.55;;
21309;SDS011;10814;51.722;8.772;2024-02-21T10:24:46;10.05;;;6.78;;
21309;SDS011;10814;51.722;8.772;2024-02-21T10:27:11;11.40;;;6.30;;
21309;SDS011;10814;51.722;8.772;2024-02-21T10:29:38;9.55;;;6.05;;
21309;SDS011;10814;51.722;8.772;2024-02-21T10:34:34;10.15;;;5.95;;
21309;SDS011;10814;51.722;8.772;2024-02-21T10:37:01;10.65;;;5.40;;
21309;SDS011;10814;51.722;8.772;2024-02-21T10:39:35;10.27;;;5.07;;
21309;SDS011;10814;51.722;8.772;2024-02-21T10:42:03;8.38;;;4.43;;
21309;SDS011;10814;51.722;8.772;2024-02-21T10:44:29;7.40;;;3.90;;
21309;SDS011;10814;51.722;8.772;2024-02-21T10:46:56;9.32;;;4.00;;
21309;SDS011;10814;51.722;8.772;2024-02-21T10:49:23;9.60;;;3.42;;
21309;SDS011;10814;51.722;8.772;2024-02-21T10:51:58;9.27;;;3.55;;
21309;SDS011;10814;51.722;8.772;2024-02-21T10:56:53;7.15;;;2.85;;
21309;SDS011;10814;51.722;8.772;2024-02-21T10:59:23;8.68;;;3.08;;
21309;SDS011;10814;51.722;8.772;2024-02-21T11:01:51;7.10;;;2.85;;
21309;SDS011;10814;51.722;8.772;2024-02-21T11:04:17;7.65;;;3.03;;
21309;SDS011;10814;51.722;8.772;2024-02-21T11:06:43;7.75;;;2.72;;
21309;SDS011;10814;51.722;8.772;2024-02-21T11:09:10;8.95;;;3.25;;
21309;SDS011;10814;51.722;8.772;2024-02-21T11:11:39;8.68;;;2.67;;
21309;SDS011;10814;51.722;8.772;2024-02-21T11:14:06;8.68;;;2.92;;
21309;SDS011;10814;51.722;8.772;2024-02-21T11:16:36;6.78;;;3.05;;
21309;SDS011;10814;51.722;8.772;2024-02-21T11:19:06;6.57;;;2.58;;
21309;SDS011;10814;51.722;8.772;2024-02-21T11:21:34;6.40;;;2.78;;
21309;SDS011;10814;51.722;8.772;2024-02-21T11:24:09;6.28;;;2.67;;
21309;SDS011;10814;51.722;8.772;2024-02-21T11:26:36;6.70;;;2.45;;
21309;SDS011;10814;51.722;8.772;2024-02-21T11:29:03;5.70;;;2.47;;
21309;SDS011;10814;51.722;8.772;2024-02-21T11:31:43;6.75;;;2.13;;
21309;SDS011;10814;51.722;8.772;2024-02-21T11:34:13;7.38;;;2.72;;
21309;SDS011;10814;51.722;8.772;2024-02-21T11:39:25;7.18;;;2.33;;
21309;SDS011;10814;51.722;8.772;2024-02-21T11:42:04;5.20;;;2.28;;
21309;SDS011;10814;51.722;8.772;2024-02-21T11:44:31;6.65;;;2.60;;
21309;SDS011;10814;51.722;8.772;2024-02-21T11:46:57;7.65;;;2.38;;
21309;SDS011;10814;51.722;8.772;2024-02-21T11:49:29;6.55;;;2.72;;
21309;SDS011;10814;51.722;8.772;2024-02-21T11:51:59;5.22;;;2.45;;
21309;SDS011;10814;51.722;8.772;2024-02-21T11:54:26;6.85;;;2.47;;
21309;SDS011;10814;51.722;8.772;2024-02-21T11:56:52;8.80;;;2.50;;
21309;SDS011;10814;51.722;8.772;2024-02-21T11:59:20;8.35;;;2.65;;
21309;SDS011;10814;51.722;8.772;2024-02-21T12:01:46;5.78;;;2.33;;
21309;SDS011;10814;51.722;8.772;2024-02-21T12:04:13;6.60;;;2.40;;
21309;SDS011;10814;51.722;8.772;2024-02-21T12:06:42;5.07;;;1.95;;
21309;SDS011;10814;51.722;8.772;2024-02-21T12:09:08;6.20;;;2.10;;
21309;SDS011;10814;51.722;8.772;2024-02-21T12:11:34;7.60;;;2.33;;
21309;SDS011;10814;51.722;8.772;2024-02-21T12:14:03;6.68;;;2.30;;
21309;SDS011;10814;51.722;8.772;2024-02-21T12:16:30;6.10;;;2.33;;
21309;SDS011;10814;51.722;8.772;2024-02-21T12:18:57;8.18;;;2.40;;
21309;SDS011;10814;51.722;8.772;2024-02-21T12:21:24;4.57;;;1.92;;
21309;SDS011;10814;51.722;8.772;2024-02-21T12:23:53;5.25;;;2.08;;
21309;SDS011;10814;51.722;8.772;2024-02-21T12:26:19;8.85;;;2.45;;
21309;SDS011;10814;51.722;8.772;2024-02-21T12:28:44;7.80;;;2.53;;
21309;SDS011;10814;51.722;8.772;2024-02-21T12:31:10;6.45;;;2.30;;
21309;SDS011;10814;51.722;8.772;2024-02-21T12:33:36;8.23;;;2.78;;
21309;SDS011;10814;51.722;8.772;2024-02-21T12:36:02;7.25;;;2.50;;
21309;SDS011;10814;51.722;8.772;2024-02-21T12:38:29;7.25;;;2.85;;
21309;SDS011;10814;51.722;8.772;2024-02-21T12:40:59;6.60;;;2.03;;
21309;SDS011;10814;51.722;8.772;2024-02-21T12:43:34;6.28;;;2.33;;
21309;SDS011;10814;51.722;8.772;2024-02-21T12:45:59;7.50;;;2.63;;
21309;SDS011;10814;51.722;8.772;2024-02-21T12:48:25;6.70;;;2.42;;
21309;SDS011;10814;51.722;8.772;2024-02-21T12:50:59;5.28;;;2.22;;
21309;SDS011;10814;51.722;8.772;2024-02-21T12:53:25;6.32;;;2.33;;
21309;SDS011;10814;51.722;8.772;2024-02-21T12:55:51;7.43;;;2.53;;
21309;SDS011;10814;51.722;8.772;2024-02-21T12:58:16;6.88;;;2.50;;
21309;SDS011;10814;51.722;8.772;2024-02-21T13:00:42;7.38;;;2.53;;
21309;SDS011;10814;51.722;8.772;2024-02-21T13:03:08;8.00;;;2.58;;
21309;SDS011;10814;51.722;8.772;2024-02-21T13:05:37;7.47;;;2.47;;
21309;SDS011;10814;51.722;8.772;2024-02-21T13:08:04;7.32;;;2.17;;
21309;SDS011;10814;51.722;8.772;2024-02-21T13:10:33;5.82;;;2.17;;
21309;SDS011;10814;51.722;8.772;2024-02-21T13:13:00;7.25;;;2.92;;
21309;SDS011;10814;51.722;8.772;2024-02-21T13:15:29;7.90;;;2.75;;
21309;SDS011;10814;51.722;8.772;2024-02-21T13:17:55;5.88;;;2.20;;
21309;SDS011;10814;51.722;8.772;2024-02-21T13:20:33;7.45;;;2.47;;
21309;SDS011;10814;51.722;8.772;2024-02-21T13:22:59;6.40;;;2.42;;
21309;SDS011;10814;51.722;8.772;2024-02-21T13:25:24;5.70;;;2.25;;
21309;SDS011;10814;51.722;8.772;2024-02-21T13:27:50;5.38;;;2.08;;
21309;SDS011;10814;51.722;8.772;2024-02-21T13:30:16;7.80;;;2.47;;
21309;SDS011;10814;51.722;8.772;2024-02-21T13:32:43;8.05;;;2.35;;
21309;SDS011;10814;51.722;8.772;2024-02-21T13:35:11;6.70;;;2.50;;
21309;SDS011;10814;51.722;8.772;2024-02-21T13:37:38;6.40;;;2.33;;
21309;SDS011;10814;51.722;8.772;2024-02-21T13:40:04;6.00;;;2.40;;
21309;SDS011;10814;51.722;8.772;2024-02-21T13:42:30;5.95;;;2.17;;
21309;SDS011;10814;51.722;8.772;2024-02-21T13:44:56;7.07;;;2.30;;
21309;SDS011;10814;51.722;8.772;2024-02-21T13:47:21;4.95;;;2.08;;
21309;SDS011;10814;51.722;8.772;2024-02-21T13:49:47;5.55;;;2.20;;
21309;SDS011;10814;51.722;8.772;2024-02-21T13:52:13;4.82;;;2.08;;
21309;SDS011;10814;51.722;8.772;2024-02-21T13:54:39;9.18;;;2.75;;
21309;SDS011;10814;51.722;8.772;2024-02-21T13:57:05;7.03;;;2.33;;
21309;SDS011;10814;51.722;8.772;2024-02-21T13:59:31;5.15;;;1.98;;
21309;SDS011;10814;51.722;8.772;2024-02-21T14:01:58;7.10;;;2.20;;
21309;SDS011;10814;51.722;8.772;2024-02-21T14:04:24;7.30;;;2.03;;
21309;SDS011;10814;51.722;8.772;2024-02-21T14:06:49;4.97;;;1.88;;
21309;SDS011;10814;51.722;8.772;2024-02-21T14:09:15;6.30;;;2.20;;
21309;SDS011;10814;51.722;8.772;2024-02-21T14:11:43;8.30;;;2.10;;
21309;SDS011;10814;51.722;8.772;2024-02-21T14:14:10;5.63;;;2.22;;
21309;SDS011;10814;51.722;8.772;2024-02-21T14:16:35;6.97;;;1.77;;
21309;SDS011;10814;51.722;8.772;2024-02-21T14:19:01;5.20;;;2.10;;
21309;SDS011;10814;51.722;8.772;2024-02-21T14:21:27;6.13;;;2.38;;
21309;SDS011;10814;51.722;8.772;2024-02-21T14:23:53;7.38;;;2.40;;
21309;SDS011;10814;51.722;8.772;2024-02-21T14:26:19;9.60;;;2.63;;
21309;SDS011;10814;51.722;8.772;2024-02-21T14:28:46;7.93;;;2.65;;
21309;SDS011;10814;51.722;8.772;2024-02-21T14:31:12;5.68;;;2.55;;
21309;SDS011;10814;51.722;8.772;2024-02-21T14:33:38;8.35;;;2.60;;
21309;SDS011;10814;51.722;8.772;2024-02-21T14:36:04;6.93;;;2.38;;
21309;SDS011;10814;51.722;8.772;2024-02-21T14:38:30;7.68;;;2.65;;
21309;SDS011;10814;51.722;8.772;2024-02-21T14:40:55;7.22;;;2.70;;
21309;SDS011;10814;51.722;8.772;2024-02-21T14:43:21;8.82;;;3.50;;